createdAt,value
2023-06-07T00:02:07.300Z,4.10
2023-06-07T00:06:10.774Z,4.43
2023-06-07T00:10:15.738Z,4.78
2023-06-07T00:14:18.698Z,5.25
2023-06-07T00:18:23.212Z,3.90
2023-06-07T00:22:26.355Z,4.95
2023-06-07T00:26:29.524Z,3.90
2023-06-07T00:30:32.791Z,4.32
2023-06-07T00:34:37.285Z,3.88
2023-06-07T00:38:42.594Z,3.70
2023-06-07T00:42:45.667Z,3.95
2023-06-07T00:46:49.114Z,4.05
2023-06-07T00:50:53.734Z,4.50
2023-06-07T00:54:59.391Z,4.35
2023-06-07T00:59:02.656Z,3.80
2023-06-07T01:03:06.937Z,4.13
2023-06-07T01:07:12.449Z,4.47
2023-06-07T01:11:17.960Z,4.05
2023-06-07T01:15:21.694Z,3.90
2023-06-07T01:19:28.328Z,4.90
2023-06-07T01:23:35.074Z,4.30
2023-06-07T01:27:41.119Z,4.88
2023-06-07T01:31:45.432Z,4.35
2023-06-07T01:35:49.766Z,4.53
2023-06-07T01:39:56.347Z,3.92
2023-06-07T01:44:00.190Z,4.40
2023-06-07T01:48:03.533Z,5.13
2023-06-07T01:52:07.410Z,4.50
2023-06-07T01:56:18.530Z,5.00
2023-06-07T02:00:26.928Z,4.47
2023-06-07T02:04:34.275Z,4.97
2023-06-07T02:08:41.807Z,6.07
2023-06-07T02:12:47.568Z,4.35
2023-06-07T02:16:51.609Z,4.72
2023-06-07T02:20:54.607Z,4.65
2023-06-07T02:24:58.212Z,4.95
2023-06-07T02:29:03.770Z,4.85
2023-06-07T02:33:08.156Z,4.90
2023-06-07T02:37:11.442Z,4.97
2023-06-07T02:41:14.828Z,4.60
2023-06-07T02:45:19.355Z,5.18
2023-06-07T02:49:22.448Z,5.20
2023-06-07T02:53:25.663Z,5.00
2023-06-07T02:57:28.949Z,8.85
2023-06-07T03:01:34.530Z,5.53
2023-06-07T03:05:38.470Z,5.43
2023-06-07T03:09:47.513Z,5.13
2023-06-07T03:13:53.716Z,5.25
2023-06-07T03:18:05.795Z,5.78
2023-06-07T03:22:11.642Z,5.60
2023-06-07T03:26:18.216Z,6.05
2023-06-07T03:30:22.089Z,6.35
2023-06-07T03:34:30.941Z,6.15
2023-06-07T03:38:36.816Z,6.05
2023-06-07T03:42:41.614Z,5.80
2023-06-07T03:46:44.884Z,6.68
2023-06-07T03:50:51.723Z,6.75
2023-06-07T03:54:54.859Z,7.18
2023-06-07T03:59:02.876Z,5.85
2023-06-07T04:03:08.928Z,6.30
2023-06-07T04:07:17.630Z,6.20
2023-06-07T04:11:21.516Z,5.82
2023-06-07T04:15:24.745Z,6.72
2023-06-07T04:19:27.907Z,7.18
2023-06-07T04:23:33.241Z,7.32
2023-06-07T04:27:39.115Z,7.50
2023-06-07T04:31:45.787Z,7.53
2023-06-07T04:35:51.513Z,6.32
2023-06-07T04:39:57.788Z,6.70
2023-06-07T04:44:02.548Z,6.28
2023-06-07T04:48:12.973Z,6.55
2023-06-07T04:52:20.825Z,6.25
2023-06-07T04:56:32.845Z,7.00
2023-06-07T05:00:40.203Z,6.63
2023-06-07T05:04:49.118Z,6.47
2023-06-07T05:08:53.390Z,6.60
2023-06-07T05:12:57.989Z,6.55
2023-06-07T05:17:02.118Z,6.93
2023-06-07T05:21:09.390Z,6.80
2023-06-07T05:25:14.479Z,7.82
2023-06-07T05:29:20.071Z,7.45
2023-06-07T05:33:23.659Z,6.78
2023-06-07T05:37:27.303Z,7.15
2023-06-07T05:41:31.702Z,5.78
2023-06-07T05:45:36.368Z,5.50
2023-06-07T05:49:48.999Z,5.00
2023-06-07T05:53:52.478Z,4.45
2023-06-07T05:57:58.274Z,4.65
2023-06-07T06:02:03.017Z,3.97
2023-06-07T06:10:16.589Z,3.70
2023-06-07T06:14:22.124Z,4.13
2023-06-07T06:18:26.618Z,4.57
2023-06-07T06:22:30.453Z,4.90
2023-06-07T06:32:11.299Z,5.47
2023-06-07T06:36:16.443Z,4.45
2023-06-07T06:40:48.003Z,5.50
2023-06-07T06:44:50.874Z,5.07
2023-06-07T06:49:10.692Z,4.82
2023-06-07T06:53:16.694Z,5.20
2023-06-07T06:57:19.964Z,5.13
2023-06-07T07:01:23.003Z,5.78
2023-06-07T07:05:27.332Z,5.60
2023-06-07T07:09:33.749Z,5.53
2023-06-07T07:13:36.751Z,4.97
2023-06-07T07:17:49.868Z,5.03
2023-06-07T07:21:55.343Z,5.53
2023-06-07T07:26:01.475Z,5.03
2023-06-07T07:30:07.546Z,5.15
2023-06-07T07:34:43.073Z,4.97
2023-06-07T07:38:49.226Z,4.60
2023-06-07T07:46:58.866Z,4.70
2023-06-07T07:51:05.511Z,4.65
2023-06-07T07:55:11.302Z,3.90
2023-06-07T07:59:16.576Z,3.80
2023-06-07T08:03:20.468Z,4.25
2023-06-07T08:07:25.369Z,3.92
2023-06-07T08:11:29.992Z,3.17
2023-06-07T08:15:36.236Z,4.32
2023-06-07T08:23:44.820Z,3.33
2023-06-07T08:27:48.052Z,3.25
2023-06-07T08:31:52.904Z,3.50
2023-06-07T08:35:55.900Z,3.50
2023-06-07T08:39:58.798Z,3.22
2023-06-07T08:44:01.725Z,2.92
2023-06-07T08:48:08.378Z,2.92
2023-06-07T08:52:16.407Z,3.22
2023-06-07T08:56:24.272Z,3.05
2023-06-07T09:00:27.754Z,2.85
2023-06-07T09:04:32.543Z,2.95
2023-06-07T09:08:37.618Z,2.85
2023-06-07T09:12:40.791Z,3.17
2023-06-07T09:16:56.800Z,3.13
2023-06-07T09:25:09.491Z,3.30
2023-06-07T09:29:13.006Z,3.08
2023-06-07T09:33:27.735Z,3.07
2023-06-07T09:37:44.487Z,2.60
2023-06-07T09:41:47.479Z,2.78
2023-06-07T09:45:55.933Z,3.25
2023-06-07T09:50:08.230Z,2.80
2023-06-07T09:54:12.583Z,2.92
2023-06-07T09:58:23.417Z,3.13
2023-06-07T10:02:30.168Z,2.80
2023-06-07T10:06:35.698Z,2.85
2023-06-07T10:10:43.436Z,2.92
2023-06-07T10:14:48.260Z,2.80
2023-06-07T10:18:54.056Z,2.53
2023-06-07T10:23:02.040Z,2.97
2023-06-07T10:27:13.337Z,2.63
2023-06-07T10:31:17.951Z,2.67
2023-06-07T10:35:22.126Z,2.97
2023-06-07T10:39:25.441Z,3.25
2023-06-07T10:43:31.603Z,2.70
2023-06-07T10:47:35.526Z,3.08
2023-06-07T10:52:03.934Z,2.63
2023-06-07T10:56:28.658Z,2.70
2023-06-07T11:00:35.127Z,2.60
2023-06-07T11:04:54.805Z,2.75
2023-06-07T11:09:23.531Z,2.67
2023-06-07T11:13:27.460Z,2.50
2023-06-07T11:17:53.507Z,2.60
2023-06-07T11:22:05.653Z,2.30
2023-06-07T11:26:12.464Z,2.50
2023-06-07T11:30:15.442Z,2.70
2023-06-07T11:34:19.932Z,2.65
2023-06-07T11:38:23.633Z,2.53
2023-06-07T11:42:26.546Z,2.67
2023-06-07T11:46:33.760Z,2.72
2023-06-07T11:50:39.168Z,2.83
2023-06-07T11:54:44.444Z,3.30
2023-06-07T11:58:47.437Z,3.20
2023-06-07T12:02:50.764Z,4.00
2023-06-07T12:06:56.035Z,4.22
2023-06-07T12:10:59.149Z,4.07
2023-06-07T12:15:02.564Z,3.42
2023-06-07T12:19:06.397Z,3.50
2023-06-07T12:23:11.422Z,2.97
2023-06-07T12:27:17.614Z,3.15
2023-06-07T12:31:23.622Z,3.58
2023-06-07T12:35:26.517Z,3.30
2023-06-07T12:39:32.253Z,3.00
2023-06-07T12:43:35.488Z,3.40
2023-06-07T12:47:38.437Z,2.80
2023-06-07T12:51:41.341Z,2.90
2023-06-07T12:55:45.629Z,3.05
2023-06-07T12:59:48.584Z,3.08
2023-06-07T13:07:55.573Z,2.80
2023-06-07T13:12:01.536Z,3.00
2023-06-07T13:16:08.954Z,2.90
2023-06-07T13:20:13.300Z,2.60
2023-06-07T13:28:20.885Z,3.17
2023-06-07T13:32:24.108Z,2.92
2023-06-07T13:36:27.068Z,2.83
2023-06-07T13:40:29.957Z,2.75
2023-06-07T13:44:34.508Z,2.72
2023-06-07T13:48:41.070Z,3.50
2023-06-07T13:52:44.150Z,3.10
2023-06-07T13:56:47.089Z,3.13
2023-06-07T14:00:51.330Z,2.85
2023-06-07T14:04:54.292Z,3.40
2023-06-07T14:08:57.484Z,3.20
2023-06-07T14:13:00.394Z,2.95
2023-06-07T14:17:04.590Z,3.40
2023-06-07T14:21:07.454Z,3.13
2023-06-07T14:25:10.828Z,3.13
2023-06-07T14:29:16.794Z,3.53
2023-06-07T14:37:24.540Z,3.38
2023-06-07T14:41:27.831Z,3.15
2023-06-07T14:45:30.993Z,3.38
2023-06-07T14:49:35.326Z,3.40
2023-06-07T14:53:38.174Z,3.05
2023-06-07T14:57:41.105Z,3.22
2023-06-07T15:01:44.206Z,3.08
2023-06-07T15:05:48.498Z,3.42
2023-06-07T15:09:51.617Z,3.38
2023-06-07T15:13:54.621Z,3.08
2023-06-07T15:17:58.067Z,3.55
2023-06-07T15:22:02.351Z,3.08
2023-06-07T15:26:05.220Z,3.42
2023-06-07T15:30:09.429Z,3.67
2023-06-07T15:34:12.333Z,3.17
2023-06-07T15:38:16.780Z,3.40
2023-06-07T15:42:19.744Z,3.42
2023-06-07T15:46:22.687Z,2.97
2023-06-07T15:50:32.220Z,3.20
2023-06-07T15:54:36.599Z,3.67
2023-06-07T15:58:39.531Z,3.28
2023-06-07T16:02:42.476Z,3.40
2023-06-07T16:06:45.953Z,2.88
2023-06-07T16:10:50.265Z,3.45
2023-06-07T16:14:53.162Z,3.70
2023-06-07T16:18:56.080Z,3.28
2023-06-07T16:22:58.934Z,3.17
2023-06-07T16:27:03.202Z,3.15
2023-06-07T16:31:06.055Z,3.45
2023-06-07T16:35:09.492Z,3.50
2023-06-07T16:39:12.459Z,3.20
2023-06-07T16:43:17.018Z,3.10
2023-06-07T16:47:19.843Z,3.13
2023-06-07T16:51:22.641Z,3.45
2023-06-07T16:55:25.634Z,3.50
2023-06-07T16:59:29.920Z,3.63
2023-06-07T17:03:32.927Z,3.75
2023-06-07T17:07:36.247Z,3.53
2023-06-07T17:11:39.171Z,4.03
2023-06-07T17:15:43.492Z,4.43
2023-06-07T17:19:46.436Z,4.05
2023-06-07T17:23:49.446Z,4.05
2023-06-07T17:27:52.382Z,4.78
2023-06-07T17:31:56.897Z,4.00
2023-06-07T17:35:59.848Z,4.30
2023-06-07T17:40:03.079Z,4.32
2023-06-07T17:44:06.468Z,4.45
2023-06-07T17:48:14.570Z,4.25
2023-06-07T17:52:22.944Z,4.13
2023-06-07T17:56:27.064Z,4.25
2023-06-07T18:00:29.940Z,4.05
2023-06-07T18:04:34.140Z,5.07
2023-06-07T18:08:37.328Z,4.05
2023-06-07T18:12:41.036Z,4.35
2023-06-07T18:16:46.739Z,4.38
2023-06-07T18:20:50.980Z,4.63
2023-06-07T18:24:53.886Z,4.32
2023-06-07T18:28:56.815Z,4.40
2023-06-07T18:33:00.232Z,4.18
2023-06-07T18:37:05.539Z,4.47
2023-06-07T18:41:08.623Z,5.57
2023-06-07T18:45:12.283Z,4.88
2023-06-07T18:49:15.297Z,4.60
2023-06-07T18:53:19.640Z,4.22
2023-06-07T18:57:22.507Z,4.85
2023-06-07T19:01:34.662Z,4.57
2023-06-07T19:05:45.632Z,4.00
2023-06-07T19:09:49.949Z,5.38
2023-06-07T19:13:52.795Z,5.38
2023-06-07T19:17:56.054Z,5.38
2023-06-07T19:22:00.031Z,5.25
2023-06-07T19:26:04.350Z,4.85
2023-06-07T19:30:08.633Z,5.18
2023-06-07T19:34:11.507Z,5.28
2023-06-07T19:38:14.369Z,5.65
2023-06-07T19:42:21.181Z,5.57
2023-06-07T19:46:24.841Z,5.55
2023-06-07T19:50:27.788Z,5.07
2023-06-07T19:54:30.939Z,5.28
2023-06-07T19:58:35.461Z,6.63
2023-06-07T20:02:39.003Z,5.60
2023-06-07T20:06:41.935Z,5.60
2023-06-07T20:10:44.968Z,5.72
2023-06-07T20:14:49.163Z,8.77
2023-06-07T20:18:53.205Z,9.75
2023-06-07T20:22:56.108Z,6.20
2023-06-07T20:26:59.037Z,6.78
2023-06-07T20:31:05.260Z,6.43
2023-06-07T20:35:08.729Z,6.75
2023-06-07T20:39:12.047Z,7.05
2023-06-07T20:43:14.966Z,6.68
2023-06-07T20:47:19.295Z,8.18
2023-06-07T20:51:22.292Z,7.30
2023-06-07T20:55:26.627Z,8.00
2023-06-07T20:59:31.729Z,7.05
2023-06-07T21:03:36.283Z,7.10
2023-06-07T21:07:39.408Z,6.57
2023-06-07T21:11:42.431Z,7.43
2023-06-07T21:15:45.472Z,6.65
2023-06-07T21:19:49.874Z,6.90
2023-06-07T21:23:52.894Z,7.00
2023-06-07T21:27:56.009Z,6.70
2023-06-07T21:31:59.101Z,6.80
2023-06-07T21:36:03.561Z,6.95
2023-06-07T21:40:08.432Z,7.13
2023-06-07T21:44:11.654Z,7.40
2023-06-07T21:48:14.602Z,7.15
2023-06-07T21:52:19.042Z,7.05
2023-06-07T21:56:21.988Z,6.32
2023-06-07T22:00:25.312Z,6.55
2023-06-07T22:04:28.252Z,6.63
2023-06-07T22:08:33.152Z,6.80
2023-06-07T22:12:37.978Z,6.28
2023-06-07T22:16:41.373Z,6.55
2023-06-07T22:20:45.730Z,6.70
2023-06-07T22:24:50.046Z,6.43
2023-06-07T22:28:53.047Z,6.82
2023-06-07T22:32:59.269Z,6.40
2023-06-07T22:37:05.344Z,7.35
2023-06-07T22:41:10.445Z,6.28
2023-06-07T22:45:13.323Z,7.75
2023-06-07T22:49:17.781Z,6.28
2023-06-07T22:53:20.964Z,6.60
2023-06-07T22:57:25.274Z,7.00
2023-06-07T23:01:30.572Z,6.45
2023-06-07T23:05:33.701Z,6.45
2023-06-07T23:09:36.781Z,7.13
2023-06-07T23:13:42.083Z,6.70
2023-06-07T23:17:45.650Z,6.50
2023-06-07T23:21:48.693Z,6.82
2023-06-07T23:25:51.718Z,6.63
2023-06-07T23:29:56.006Z,6.47
2023-06-07T23:33:58.832Z,6.78
2023-06-07T23:38:01.925Z,6.68
2023-06-07T23:42:05.288Z,7.13
2023-06-07T23:46:11.186Z,7.22
2023-06-07T23:50:14.712Z,6.88
2023-06-07T23:54:17.716Z,6.57
2023-06-07T23:58:20.642Z,6.88
